Kamikawa Maru — JG5687 — position and weather

sailwx.info

Track history (hours):
 
Tides and Currents Weather Stations Pressure Air Temp Water Temp Dewpoint Dewpoint Depression Visibility Wind Speed Wind Dir Waves Ship Positions

Kamikawa Maru

Last reported at 2015-Jan-27 11:33 UTC. Time now 2015-Jan-31 13:15 UTC.
Position N 34°53' E 140°00'.

Length 162 m; draft 6.8 m.

Type: Cargo ship. MMSI: 431101012.

Date/timePositionNaut miles runAvg speedWind from/ knotsBaromVisibWave heightAir tempDewpointWater temp
2015-Jan-27 11:33N 34°53' E 140°00'1515.4
2015-Jan-27 10:34N 34°58' E 139°43'1817.6
2015-Jan-27 09:33N 35°15' E 139°46'1413.6
2015-Jan-27 08:33N 35°29' E 139°50'10 1.1
2015-Jan-26 23:32N 35°38' E 139°46'1111.4
2015-Jan-26 22:33N 35°27' E 139°50'1211.9
2015-Jan-26 21:34N 35°16' E 139°47'1515.1
2015-Jan-26 20:33N 35°02' E 139°39'1817.4
2015-Jan-26 19:32N 34°51' E 139°22'3 0.1
2015-Jan-25 08:14N 34°54' E 139°21'1420.2
2015-Jan-25 07:33N 35°01' E 139°35'1716.8
2015-Jan-25 06:33N 35°15' E 139°46'1313.5
2015-Jan-25 05:33N 35°29' E 139°49'10 2.2
2015-Jan-25 01:03N 35°38' E 139°46'0 0.1
2015-Jan-24 23:33N 35°38' E 139°46'1110.6
2015-Jan-24 22:33N 35°28' E 139°51'1312.7
2015-Jan-24 21:33N 35°16' E 139°46'1413.8
2015-Jan-24 20:34N 35°03' E 139°45'1512.4
2015-Jan-24 19:23N 34°53' E 139°58'1416.6
2015-Jan-24 18:33N 34°60' E 140°13'  
2015-Jan-20 13:07N 35°04' E 140°23'2918.6
2015-Jan-20 11:33N 34°51' E 139°52'1717.0
2015-Jan-20 10:34N 35°07' E 139°44'1413.8
2015-Jan-20 09:33N 35°20' E 139°42'1615.4
2015-Jan-20 08:33N 35°36' E 139°47'2 0.2
2015-Jan-19 23:30N 35°38' E 139°46'1111.7
2015-Jan-19 22:34N 35°28' E 139°51'1212.0
2015-Jan-19 21:33N 35°16' E 139°46'1514.7
2015-Jan-19 20:33N 35°02' E 139°41'1817.9
2015-Jan-19 19:33N 34°52' E 139°22'3 0.1
2015-Jan-18 10:14N 34°52' E 139°19'1420.0
2015-Jan-18 09:33N 34°60' E 139°33'1817.7
2015-Jan-18 08:33N 35°14' E 139°46'1212.5
2015-Jan-18 07:33N 35°26' E 139°45'1212.0
2015-Jan-18 06:33N 35°38' E 139°46'0 0.0
2015-Jan-17 23:32N 35°38' E 139°46'1212.1
2015-Jan-17 22:34N 35°26' E 139°49'1211.8
2015-Jan-17 21:34N 35°15' E 139°47'1212.2
2015-Jan-17 20:34N 35°03' E 139°44'1413.5
2015-Jan-17 19:32N 34°51' E 139°53'  
Track history (hours):
 
Tides and Currents Weather Stations Pressure Air Temp Water Temp Dewpoint Dewpoint Depression Visibility Wind Speed Wind Dir Waves Ship Positions

Kamikawa Maru

Last reported at 2015-Jan-27 11:33 UTC. Time now 2015-Jan-31 13:15 UTC.
Position N 34°53' E 140°00'.

Length 162 m; draft 6.8 m.

Type: Cargo ship. MMSI: 431101012.

Date/timePositionNaut miles runAvg speedWind from/ knotsBaromVisibWave heightAir tempDewpointWater temp
2015-Jan-27 11:33N 34°53' E 140°00'1515.4
2015-Jan-27 10:34N 34°58' E 139°43'1817.6
2015-Jan-27 09:33N 35°15' E 139°46'1413.6
2015-Jan-27 08:33N 35°29' E 139°50'10 1.1
2015-Jan-26 23:32N 35°38' E 139°46'1111.4
2015-Jan-26 22:33N 35°27' E 139°50'1211.9
2015-Jan-26 21:34N 35°16' E 139°47'1515.1
2015-Jan-26 20:33N 35°02' E 139°39'1817.4
2015-Jan-26 19:32N 34°51' E 139°22'3 0.1
2015-Jan-25 08:14N 34°54' E 139°21'1420.2
2015-Jan-25 07:33N 35°01' E 139°35'1716.8
2015-Jan-25 06:33N 35°15' E 139°46'1313.5
2015-Jan-25 05:33N 35°29' E 139°49'10 2.2
2015-Jan-25 01:03N 35°38' E 139°46'0 0.1
2015-Jan-24 23:33N 35°38' E 139°46'1110.6
2015-Jan-24 22:33N 35°28' E 139°51'1312.7
2015-Jan-24 21:33N 35°16' E 139°46'1413.8
2015-Jan-24 20:34N 35°03' E 139°45'1512.4
2015-Jan-24 19:23N 34°53' E 139°58'1416.6
2015-Jan-24 18:33N 34°60' E 140°13'  
2015-Jan-20 13:07N 35°04' E 140°23'2918.6
2015-Jan-20 11:33N 34°51' E 139°52'1717.0
2015-Jan-20 10:34N 35°07' E 139°44'1413.8
2015-Jan-20 09:33N 35°20' E 139°42'1615.4
2015-Jan-20 08:33N 35°36' E 139°47'2 0.2
2015-Jan-19 23:30N 35°38' E 139°46'1111.7
2015-Jan-19 22:34N 35°28' E 139°51'1212.0
2015-Jan-19 21:33N 35°16' E 139°46'1514.7
2015-Jan-19 20:33N 35°02' E 139°41'1817.9
2015-Jan-19 19:33N 34°52' E 139°22'3 0.1
2015-Jan-18 10:14N 34°52' E 139°19'1420.0
2015-Jan-18 09:33N 34°60' E 139°33'1817.7
2015-Jan-18 08:33N 35°14' E 139°46'1212.5
2015-Jan-18 07:33N 35°26' E 139°45'1212.0
2015-Jan-18 06:33N 35°38' E 139°46'0 0.0
2015-Jan-17 23:32N 35°38' E 139°46'1212.1
2015-Jan-17 22:34N 35°26' E 139°49'1211.8
2015-Jan-17 21:34N 35°15' E 139°47'1212.2
2015-Jan-17 20:34N 35°03' E 139°44'1413.5
2015-Jan-17 19:32N 34°51' E 139°53'  

Dump ship's entire track history